Chernihiv, Ukraine
Current Conditions -  °F | °C
As of 7:00 AM on Sunday 26 Oct 2014 (Local Time) from UMGG Reporting Station
Clear Clear  
Wind Chill:   Ceiling: Unl
Heat Index: 18°   Visibility: 6mi
Dew Point: 14°   Wind: 9mph
Humidity: 86%   Direction: 140°SE
Pressure: 30.62"   Gusts: NA
Location:  51.5°N, 31.3°E
Report Text: UMGG 260400Z 14004MPS 9000 NSC M08/M10 Q1037 R10/CLRD// NOSIG
Loading
Personal Weather Stations






























Interactive Weather Map
Tropical Storm Tracking
New forecast layout! Learn more

10-Day Weather Forecast

Advertisements
Track Severe Weather on mobile